MROC/SJO METAR and TAF weather

Enter ICAO airport designator
Station Type Date Time Source
MROC METAR 2020/09/18 07:00 UTC NOAA

MROC 180700Z 07007KT CAVOK 19/19 A2999 NOSIG


Station Type Date Time Source
MROC Decoded METAR 2020/09/18 07:00 UTC NOAA

Juan Santamaria, Costa Rica (MROC) 10-00N 084-13W 939M
Sep 18, 2020 - 03:00 AM EDT / 2020.09.18 0700 UTC
Wind: from the ENE (070 degrees) at 8 MPH (7 KT):0
Visibility: greater than 7 mile(s):0
Temperature: 66 F (19 C)
Dew Point: 66 F (19 C)
Relative Humidity: 100%
Pressure (altimeter): 29.99 in. Hg (1015 hPa)
ob: MROC 180700Z 07007KT CAVOK 19/19 A2999 NOSIG
cycle: 7

Station Type Date Time Source
MROC TAF 2020/09/18 06:09 UTC NOAA

TAF MROC 180500Z 1806/1906 07005KT 9999 FEW040 TX28/1819Z TN19/1810Z
TEMPO 1806/1809 VRB02KT SCT030
BECMG 1814/1817 25008KT
TEMPO 1820/1823 TSRA FEW015CB
BECMG 1902/1905 06006KT

Example: see airport list